createdAt,value
2022-10-03T12:58:55.098Z,3.20
2022-10-03T13:00:30.579Z,3.50
2022-10-03T13:09:38.868Z,4.50
2022-10-03T13:33:51.831Z,4.10
2022-10-03T13:36:24.418Z,3.80
2022-10-03T13:39:18.671Z,3.90
2022-10-03T13:42:09.789Z,4.00
2022-10-03T13:44:49.625Z,5.10
2022-10-03T13:47:28.735Z,2.40
2022-10-03T13:50:00.639Z,2.50
2022-10-03T13:52:39.218Z,3.10
2022-10-03T13:55:25.062Z,3.10
2022-10-03T13:58:35.618Z,3.10
2022-10-03T14:01:23.749Z,3.10
2022-10-03T14:04:40.993Z,3.30
2022-10-03T14:07:25.380Z,3.90
2022-10-03T14:10:29.639Z,4.60
2022-10-03T14:13:25.973Z,6.00
2022-10-03T14:16:40.979Z,3.70
2022-10-03T14:19:13.399Z,4.10
2022-10-03T14:22:14.222Z,5.50
2022-10-03T14:25:51.441Z,5.20
2022-10-03T14:29:17.101Z,6.50
2022-10-03T14:36:20.315Z,6.00
2022-10-03T14:39:36.611Z,6.30
2022-10-03T15:51:31.392Z,9.20
2022-10-03T15:56:23.273Z,4.60
2022-10-03T16:55:46.888Z,16.00
2022-10-03T17:01:36.001Z,20.60
2022-10-03T18:21:07.156Z,10.90
2022-10-03T18:24:08.765Z,9.50
2022-10-03T18:41:36.709Z,10.10
2022-10-03T18:46:02.564Z,8.50
2022-10-03T18:47:35.545Z,9.40
2022-10-03T18:50:38.426Z,9.00
2022-10-03T18:53:29.323Z,8.20
2022-10-03T18:56:07.540Z,8.80
2022-10-03T18:58:50.258Z,7.80
2022-10-03T19:01:30.450Z,8.00
2022-10-03T19:04:09.106Z,8.90
2022-10-03T19:06:37.977Z,8.30
2022-10-03T19:09:23.928Z,8.80
2022-10-03T19:12:10.443Z,8.50
2022-10-03T19:15:19.859Z,9.70
2022-10-03T19:18:12.211Z,9.00
2022-10-03T19:20:41.707Z,8.20
2022-10-03T19:23:29.275Z,8.40
2022-10-03T19:27:05.454Z,8.50
2022-10-03T19:29:55.486Z,7.70
2022-10-03T19:32:42.088Z,7.40
2022-10-03T19:35:22.522Z,7.00
2022-10-03T19:37:55.616Z,7.10
2022-10-03T19:41:12.659Z,6.60
2022-10-03T19:44:01.703Z,6.20
2022-10-03T19:47:04.697Z,6.20
2022-10-03T19:49:43.390Z,6.60
2022-10-03T19:52:36.701Z,6.00
2022-10-03T19:55:08.766Z,5.10
2022-10-03T19:57:44.962Z,4.90
2022-10-03T20:00:17.580Z,4.70
2022-10-03T20:02:55.227Z,4.90
2022-10-03T20:05:26.812Z,4.60
2022-10-03T20:09:00.776Z,4.20
2022-10-03T20:12:19.544Z,4.40
2022-10-03T20:15:06.342Z,3.20
2022-10-03T20:23:42.605Z,3.70
